createdAt,value
2018-06-27T00:01:33.144Z,17.40
2018-06-27T00:04:02.142Z,17.42
2018-06-27T00:06:31.065Z,17.41
2018-06-27T00:08:59.890Z,17.37
2018-06-27T00:11:28.971Z,17.31
2018-06-27T00:13:57.861Z,17.32
2018-06-27T00:16:26.622Z,17.33
2018-06-27T00:18:55.733Z,17.27
2018-06-27T00:21:24.550Z,17.17
2018-06-27T00:23:53.367Z,17.11
2018-06-27T00:26:22.648Z,17.11
2018-06-27T00:28:51.505Z,17.08
2018-06-27T00:31:20.273Z,17.05
2018-06-27T00:33:49.347Z,16.96
2018-06-27T00:36:18.286Z,16.91
2018-06-27T00:38:47.378Z,16.83
2018-06-27T00:41:16.177Z,16.84
2018-06-27T00:43:44.977Z,16.87
2018-06-27T00:46:13.822Z,16.86
2018-06-27T00:48:42.778Z,16.85
2018-06-27T00:51:11.791Z,16.80
2018-06-27T00:53:45.781Z,16.70
2018-06-27T00:56:14.755Z,16.61
2018-06-27T00:58:43.556Z,16.61
2018-06-27T01:01:12.426Z,16.56
2018-06-27T01:03:41.701Z,16.62
2018-06-27T01:06:10.494Z,16.57
2018-06-27T01:08:39.355Z,16.57
2018-06-27T01:11:08.317Z,16.59
2018-06-27T01:13:37.126Z,16.57
2018-06-27T01:16:06.241Z,16.52
2018-06-27T01:18:35.341Z,16.44
2018-06-27T01:21:04.101Z,16.43
2018-06-27T01:23:32.958Z,16.39
2018-06-27T01:26:01.892Z,16.40
2018-06-27T01:28:30.910Z,16.30
2018-06-27T01:30:59.848Z,16.26
2018-06-27T01:33:28.699Z,16.22
2018-06-27T01:35:57.724Z,16.16
2018-06-27T01:38:26.623Z,16.07
2018-06-27T01:40:55.496Z,16.01
2018-06-27T01:43:24.331Z,15.98
2018-06-27T01:45:53.199Z,16.02
2018-06-27T01:48:22.062Z,15.91
2018-06-27T01:50:50.841Z,16.05
2018-06-27T01:53:19.858Z,15.96
2018-06-27T01:55:48.669Z,15.92
2018-06-27T01:58:17.410Z,15.81
2018-06-27T02:00:46.259Z,15.83
2018-06-27T02:03:15.294Z,15.85
2018-06-27T02:05:44.121Z,15.87
2018-06-27T02:08:12.936Z,15.80
2018-06-27T02:10:42.189Z,15.81
2018-06-27T02:13:11.267Z,15.89
2018-06-27T02:15:40.051Z,15.94
2018-06-27T02:18:08.905Z,16.01
2018-06-27T02:20:37.753Z,16.01
2018-06-27T02:23:08.200Z,15.95
2018-06-27T02:25:37.535Z,15.89
2018-06-27T02:28:06.699Z,15.91
2018-06-27T02:30:35.493Z,16.01
2018-06-27T02:33:04.245Z,16.04
2018-06-27T02:35:33.259Z,16.09
2018-06-27T02:38:02.126Z,16.10
2018-06-27T02:40:31.122Z,16.11
2018-06-27T02:42:59.949Z,16.21
2018-06-27T02:45:28.811Z,16.24
2018-06-27T02:47:57.921Z,16.28
2018-06-27T02:50:26.786Z,16.32
2018-06-27T02:52:55.628Z,16.34
2018-06-27T02:55:24.663Z,16.37
2018-06-27T02:57:53.409Z,16.37
2018-06-27T03:00:22.563Z,16.42
2018-06-27T03:02:51.401Z,16.40
2018-06-27T03:05:20.433Z,16.35
2018-06-27T03:07:49.318Z,16.27
2018-06-27T03:10:18.164Z,16.25
2018-06-27T03:12:46.969Z,16.24
2018-06-27T03:15:15.653Z,16.24
2018-06-27T03:17:46.142Z,16.24
2018-06-27T03:20:15.114Z,16.29
2018-06-27T03:22:44.951Z,16.32
2018-06-27T03:25:13.770Z,16.31
2018-06-27T03:27:42.811Z,16.29
2018-06-27T03:30:11.671Z,16.30
2018-06-27T03:32:40.394Z,16.27
2018-06-27T03:35:09.241Z,16.25
2018-06-27T03:37:38.090Z,16.22
2018-06-27T03:40:07.505Z,16.18
2018-06-27T03:42:36.365Z,16.18
2018-06-27T03:45:05.419Z,16.13
2018-06-27T03:47:34.332Z,16.12
2018-06-27T03:50:03.181Z,16.17
2018-06-27T03:52:32.078Z,16.21
2018-06-27T03:55:00.981Z,16.26
2018-06-27T03:57:29.728Z,16.28
2018-06-27T03:59:58.501Z,16.27
2018-06-27T04:02:27.502Z,16.26
2018-06-27T04:04:56.569Z,16.25
2018-06-27T04:07:25.522Z,16.31
2018-06-27T04:09:54.342Z,16.37
2018-06-27T04:12:23.181Z,16.38
2018-06-27T04:14:51.982Z,16.46
2018-06-27T04:17:20.852Z,16.52
2018-06-27T04:19:49.609Z,16.56
2018-06-27T04:22:24.558Z,16.60
2018-06-27T04:24:53.478Z,16.67
2018-06-27T04:27:22.475Z,16.62
2018-06-27T04:29:51.334Z,16.62
2018-06-27T04:32:20.370Z,16.62
2018-06-27T04:34:49.432Z,16.58
2018-06-27T04:37:18.386Z,16.47
2018-06-27T04:39:47.229Z,16.40
2018-06-27T04:42:16.350Z,16.54
2018-06-27T04:44:45.469Z,16.67
2018-06-27T04:47:14.450Z,16.84
2018-06-27T04:49:43.577Z,16.80
2018-06-27T04:52:12.545Z,16.87
2018-06-27T04:54:41.514Z,17.07
2018-06-27T04:57:10.792Z,17.29
2018-06-27T04:59:39.638Z,17.08
2018-06-27T05:02:08.674Z,16.81
2018-06-27T05:04:37.710Z,16.71
2018-06-27T05:07:06.706Z,16.57
2018-06-27T05:09:35.734Z,16.64
2018-06-27T05:12:04.519Z,16.78
2018-06-27T05:14:33.393Z,16.84
2018-06-27T05:17:02.205Z,16.76
2018-06-27T05:19:31.479Z,16.91
2018-06-27T05:22:00.819Z,16.92
2018-06-27T05:24:29.914Z,17.00
2018-06-27T05:26:59.239Z,17.01
2018-06-27T05:29:28.090Z,17.01
2018-06-27T05:31:56.898Z,17.28
2018-06-27T05:34:25.722Z,17.49
2018-06-27T05:36:54.456Z,17.56
2018-06-27T05:39:24.125Z,17.68
2018-06-27T05:41:53.145Z,17.90
2018-06-27T05:44:22.217Z,18.13
2018-06-27T05:46:51.410Z,18.25
2018-06-27T05:49:20.483Z,18.46
2018-06-27T05:51:49.363Z,18.42
2018-06-27T05:54:18.324Z,18.44
2018-06-27T05:56:47.369Z,18.32
2018-06-27T05:59:16.380Z,18.04
2018-06-27T06:01:45.229Z,18.10
2018-06-27T06:04:14.099Z,18.12
2018-06-27T06:06:43.198Z,18.10
2018-06-27T06:09:13.062Z,18.06
2018-06-27T06:11:41.934Z,18.13
2018-06-27T06:14:10.910Z,18.10
2018-06-27T06:16:42.402Z,18.18
2018-06-27T06:19:11.333Z,18.20
2018-06-27T06:21:40.230Z,18.19
2018-06-27T06:24:09.398Z,18.25
2018-06-27T06:26:38.802Z,18.32
2018-06-27T06:29:07.995Z,18.51
2018-06-27T06:31:37.249Z,18.62
2018-06-27T06:34:06.380Z,18.62
2018-06-27T06:36:35.347Z,18.64
2018-06-27T06:39:08.031Z,18.77
2018-06-27T06:41:37.059Z,18.81
2018-06-27T06:44:07.343Z,18.83
2018-06-27T06:46:36.151Z,18.81
2018-06-27T06:49:05.066Z,18.94
2018-06-27T06:51:33.947Z,19.03
2018-06-27T06:54:02.828Z,18.91
2018-06-27T06:56:31.780Z,19.06
2018-06-27T06:59:00.619Z,19.12
2018-06-27T07:01:29.730Z,19.14
2018-06-27T07:03:58.735Z,19.26
2018-06-27T07:06:27.763Z,19.47
2018-06-27T07:08:56.852Z,19.64
2018-06-27T07:11:25.852Z,19.86
2018-06-27T07:13:54.844Z,19.85
2018-06-27T07:16:23.862Z,19.88
2018-06-27T07:18:54.944Z,20.00
2018-06-27T07:21:23.683Z,20.29
2018-06-27T07:23:53.215Z,20.60
2018-06-27T07:26:21.907Z,20.86
2018-06-27T07:29:10.479Z,20.93
2018-06-27T07:31:40.046Z,21.00
2018-06-27T07:34:09.068Z,21.09
2018-06-27T07:36:37.886Z,21.14
2018-06-27T07:39:09.531Z,20.91
2018-06-27T07:41:38.803Z,21.00
2018-06-27T07:44:09.373Z,20.92
2018-06-27T07:46:38.235Z,20.81
2018-06-27T07:49:07.193Z,20.95
2018-06-27T07:51:36.009Z,21.01
2018-06-27T07:54:05.068Z,21.15
2018-06-27T07:56:33.966Z,21.33
2018-06-27T07:59:02.860Z,21.44
2018-06-27T08:01:32.183Z,21.43
2018-06-27T08:04:00.999Z,21.38
2018-06-27T08:06:47.285Z,21.40
2018-06-27T08:09:16.249Z,21.47
2018-06-27T08:11:45.538Z,21.50
2018-06-27T08:14:14.499Z,21.51
2018-06-27T08:16:43.348Z,21.45
2018-06-27T08:19:12.195Z,21.27
2018-06-27T08:21:41.107Z,21.47
2018-06-27T08:24:09.858Z,21.88
2018-06-27T08:26:38.638Z,22.13
2018-06-27T08:29:07.519Z,22.22
2018-06-27T08:31:36.485Z,21.87
2018-06-27T08:34:05.678Z,21.77
2018-06-27T08:36:34.484Z,21.52
2018-06-27T08:39:04.109Z,21.32
2018-06-27T08:41:33.120Z,21.63
2018-06-27T08:44:01.896Z,21.89
2018-06-27T08:46:31.585Z,22.04
2018-06-27T08:49:00.546Z,21.85
2018-06-27T08:51:29.677Z,21.89
2018-06-27T08:53:58.586Z,21.98
2018-06-27T08:56:27.420Z,21.86
2018-06-27T08:58:56.252Z,22.04
2018-06-27T09:01:25.130Z,22.30
2018-06-27T09:03:55.829Z,22.36
2018-06-27T09:06:24.911Z,22.56
2018-06-27T09:08:53.947Z,22.15
2018-06-27T09:11:23.170Z,21.99
2018-06-27T09:13:52.127Z,22.29
2018-06-27T09:16:20.979Z,22.29
2018-06-27T09:18:49.848Z,22.36
2018-06-27T09:21:18.778Z,22.23
2018-06-27T09:23:47.762Z,22.17
2018-06-27T09:26:16.691Z,22.07
2018-06-27T09:28:45.531Z,21.76
2018-06-27T09:31:14.391Z,22.20
2018-06-27T09:33:43.954Z,22.39
2018-06-27T09:36:12.977Z,22.70
2018-06-27T09:38:41.846Z,22.96
2018-06-27T09:41:10.665Z,23.20
2018-06-27T09:43:39.648Z,23.27
2018-06-27T09:46:08.442Z,23.05
2018-06-27T09:48:37.414Z,23.06
2018-06-27T09:51:06.282Z,23.00
2018-06-27T09:53:35.002Z,22.88
2018-06-27T09:56:04.144Z,22.78
2018-06-27T09:58:33.038Z,22.55
2018-06-27T10:01:02.373Z,22.75
2018-06-27T10:03:33.061Z,23.26
2018-06-27T10:06:02.701Z,23.32
2018-06-27T10:08:32.429Z,23.51
2018-06-27T10:11:01.883Z,23.66
2018-06-27T10:13:31.108Z,23.92
2018-06-27T10:16:00.324Z,23.97
2018-06-27T10:18:29.040Z,24.25
2018-06-27T10:20:57.890Z,24.14
2018-06-27T10:23:26.750Z,24.46
2018-06-27T10:25:55.874Z,24.44
2018-06-27T10:28:24.880Z,24.35
2018-06-27T10:30:53.841Z,24.54
2018-06-27T10:33:22.590Z,24.27
2018-06-27T10:35:51.555Z,23.70
2018-06-27T10:38:20.534Z,23.66
2018-06-27T10:40:51.138Z,23.57
2018-06-27T10:43:20.790Z,23.75
2018-06-27T10:45:50.509Z,23.79
2018-06-27T10:48:20.390Z,23.96
2018-06-27T10:50:49.274Z,24.27
2018-06-27T10:53:18.299Z,24.80
2018-06-27T10:55:47.190Z,24.75
2018-06-27T10:58:16.243Z,24.92
2018-06-27T11:00:46.085Z,25.36
2018-06-27T11:03:15.501Z,25.46
2018-06-27T11:05:44.764Z,25.18
2018-06-27T11:08:13.971Z,24.85
2018-06-27T11:10:43.106Z,24.73
2018-06-27T11:13:12.157Z,25.13
2018-06-27T11:15:41.269Z,25.41
2018-06-27T11:18:10.073Z,25.52
2018-06-27T11:20:39.196Z,25.81
2018-06-27T11:23:08.528Z,25.72
2018-06-27T11:25:37.607Z,25.72
2018-06-27T11:28:07.028Z,25.69
2018-06-27T11:30:35.854Z,25.63
2018-06-27T11:33:05.196Z,25.63
2018-06-27T11:35:34.415Z,25.78
2018-06-27T11:38:03.386Z,25.88
2018-06-27T11:40:32.351Z,26.09
2018-06-27T11:43:01.407Z,26.38
2018-06-27T11:45:30.204Z,26.91
2018-06-27T11:47:59.286Z,26.61
2018-06-27T11:50:28.271Z,26.43
2018-06-27T11:52:57.399Z,26.34
2018-06-27T11:55:26.937Z,26.56
2018-06-27T11:57:56.087Z,27.36
2018-06-27T12:00:25.208Z,27.97
2018-06-27T12:02:54.114Z,27.45
2018-06-27T12:05:23.365Z,27.57
2018-06-27T12:07:52.382Z,26.71
2018-06-27T12:10:21.283Z,26.59
2018-06-27T12:12:50.200Z,26.25
2018-06-27T12:15:19.369Z,25.96
2018-06-27T12:17:48.247Z,25.31
2018-06-27T12:20:17.435Z,25.45
2018-06-27T12:22:46.460Z,27.06
2018-06-27T12:25:15.324Z,28.55
2018-06-27T12:27:44.173Z,29.64
2018-06-27T12:30:21.563Z,29.45
2018-06-27T12:32:51.424Z,28.64
2018-06-27T12:35:21.551Z,27.72
2018-06-27T12:37:52.178Z,27.12
2018-06-27T12:40:21.159Z,26.47
2018-06-27T12:42:50.157Z,26.07
2018-06-27T12:45:19.132Z,26.42
2018-06-27T12:47:48.071Z,28.50
2018-06-27T12:50:17.020Z,30.64
2018-06-27T12:52:45.880Z,30.31
2018-06-27T12:55:14.874Z,29.57
2018-06-27T12:57:43.606Z,29.14
2018-06-27T13:00:12.591Z,28.17
2018-06-27T13:02:41.495Z,27.87
2018-06-27T13:05:10.698Z,27.11
2018-06-27T13:07:39.558Z,27.17
2018-06-27T13:10:09.372Z,28.19
2018-06-27T13:12:38.816Z,28.44
2018-06-27T13:15:07.969Z,28.64
2018-06-27T13:17:36.798Z,29.47
2018-06-27T13:20:06.226Z,29.40
2018-06-27T13:22:35.085Z,29.59
2018-06-27T13:25:04.137Z,29.24
2018-06-27T13:27:33.080Z,28.63
2018-06-27T13:30:02.263Z,28.03
2018-06-27T13:32:31.116Z,27.35
2018-06-27T13:35:00.257Z,26.97
2018-06-27T13:37:29.054Z,26.47
2018-06-27T13:39:58.042Z,26.42
2018-06-27T13:42:27.493Z,25.82
2018-06-27T13:44:56.488Z,25.67
2018-06-27T13:47:25.423Z,25.45
2018-06-27T13:49:54.510Z,25.21
2018-06-27T13:52:23.955Z,25.20
2018-06-27T13:54:56.996Z,25.19
2018-06-27T13:57:27.492Z,25.31
2018-06-27T13:59:59.611Z,25.53
2018-06-27T14:02:29.120Z,25.43
2018-06-27T14:04:58.298Z,25.39
2018-06-27T14:07:27.303Z,25.32
2018-06-27T14:09:56.405Z,25.07
2018-06-27T14:12:27.094Z,25.03
2018-06-27T14:14:56.385Z,25.04
2018-06-27T14:17:25.526Z,24.66
2018-06-27T14:19:55.069Z,24.70
2018-06-27T14:22:24.223Z,24.76
2018-06-27T14:24:53.412Z,24.51
2018-06-27T14:27:22.367Z,24.41
2018-06-27T14:29:51.453Z,24.34
2018-06-27T14:32:20.577Z,24.38
2018-06-27T14:34:49.323Z,24.33
2018-06-27T14:37:18.897Z,24.50
2018-06-27T14:39:47.833Z,24.24
2018-06-27T14:42:16.836Z,24.47
2018-06-27T14:44:46.063Z,24.51
2018-06-27T14:47:16.076Z,24.66
2018-06-27T14:49:44.937Z,24.71
2018-06-27T14:52:13.902Z,25.37
2018-06-27T14:54:47.542Z,25.75
2018-06-27T14:57:16.627Z,25.63
2018-06-27T14:59:45.896Z,25.81
2018-06-27T15:02:15.218Z,25.87
2018-06-27T15:04:44.023Z,25.85
2018-06-27T15:07:13.694Z,25.59
2018-06-27T15:09:44.815Z,25.41
2018-06-27T15:12:17.604Z,25.33
2018-06-27T15:14:46.568Z,25.17
2018-06-27T15:17:15.686Z,25.26
2018-06-27T15:19:44.837Z,25.26
2018-06-27T15:22:13.831Z,25.22
2018-06-27T15:24:43.538Z,25.25
2018-06-27T15:27:12.395Z,24.82
2018-06-27T15:29:42.171Z,24.90
2018-06-27T15:32:11.137Z,24.84
2018-06-27T15:34:40.007Z,24.79
2018-06-27T15:37:09.033Z,24.85
2018-06-27T15:39:37.995Z,24.94
2018-06-27T15:42:07.230Z,25.15
2018-06-27T15:44:36.292Z,25.57
2018-06-27T15:47:05.218Z,25.69
2018-06-27T15:49:34.003Z,25.75
2018-06-27T15:52:03.254Z,25.50
2018-06-27T15:54:32.001Z,25.37
2018-06-27T15:57:00.777Z,25.42
2018-06-27T15:59:29.948Z,25.82
2018-06-27T16:01:59.038Z,26.39
2018-06-27T16:04:27.925Z,26.26
2018-06-27T16:06:56.948Z,26.40
2018-06-27T16:09:25.859Z,27.18
2018-06-27T16:11:55.117Z,28.14
2018-06-27T16:14:24.015Z,28.24
2018-06-27T16:16:53.405Z,28.60
2018-06-27T16:19:22.299Z,28.09
2018-06-27T16:21:51.131Z,27.66
2018-06-27T16:24:20.089Z,27.61
2018-06-27T16:26:49.023Z,27.09
2018-06-27T16:29:17.760Z,26.87
2018-06-27T16:31:46.661Z,26.55
2018-06-27T16:34:15.805Z,26.08
2018-06-27T16:36:45.109Z,25.93
2018-06-27T16:39:14.838Z,25.57
2018-06-27T16:41:43.756Z,24.93
2018-06-27T16:44:13.108Z,24.87
2018-06-27T16:46:41.923Z,24.60
2018-06-27T16:49:11.683Z,24.44
2018-06-27T16:51:40.849Z,24.13
2018-06-27T16:54:10.137Z,23.93
2018-06-27T16:56:38.970Z,23.61
2018-06-27T16:59:08.061Z,23.36
2018-06-27T17:01:37.200Z,23.23
2018-06-27T17:04:06.123Z,23.11
2018-06-27T17:06:35.153Z,23.05
2018-06-27T17:09:04.728Z,22.76
2018-06-27T17:11:35.626Z,22.72
2018-06-27T17:14:04.570Z,22.63
2018-06-27T17:16:33.438Z,22.64
2018-06-27T17:19:02.399Z,22.91
2018-06-27T17:21:31.271Z,23.61
2018-06-27T17:24:00.393Z,24.01
2018-06-27T17:26:29.554Z,24.14
2018-06-27T17:28:58.746Z,24.63
2018-06-27T17:31:27.602Z,24.73
2018-06-27T17:33:56.506Z,24.51
2018-06-27T17:36:25.457Z,24.29
2018-06-27T17:38:54.184Z,23.85
2018-06-27T17:41:23.071Z,23.66
2018-06-27T17:43:51.796Z,23.71
2018-06-27T17:46:20.827Z,23.63
2018-06-27T17:48:49.893Z,24.20
2018-06-27T17:51:20.203Z,25.27
2018-06-27T17:53:50.443Z,26.47
2018-06-27T17:56:19.904Z,27.30
2018-06-27T17:58:48.650Z,28.10
2018-06-27T18:01:17.645Z,28.71
2018-06-27T18:03:46.493Z,27.40
2018-06-27T18:06:15.567Z,27.26
2018-06-27T18:08:44.911Z,27.89
2018-06-27T18:11:13.915Z,28.96
2018-06-27T18:13:42.963Z,29.08
2018-06-27T18:16:13.036Z,29.54
2018-06-27T18:18:42.063Z,29.85
2018-06-27T18:21:11.096Z,29.02
2018-06-27T18:23:39.891Z,28.38
2018-06-27T18:26:08.695Z,26.81
2018-06-27T18:28:37.488Z,25.78
2018-06-27T18:31:06.865Z,25.00
2018-06-27T18:33:36.115Z,24.38
2018-06-27T18:36:05.198Z,23.71
2018-06-27T18:38:34.057Z,23.23
2018-06-27T18:41:02.936Z,22.97
2018-06-27T18:43:31.721Z,22.84
2018-06-27T18:46:00.963Z,22.62
2018-06-27T18:48:30.089Z,22.36
2018-06-27T18:50:59.171Z,22.15
2018-06-27T18:53:29.933Z,22.01
2018-06-27T18:55:58.875Z,21.95
2018-06-27T18:58:27.628Z,21.81
2018-06-27T19:00:56.861Z,21.75
2018-06-27T19:03:26.643Z,21.62
2018-06-27T19:05:55.663Z,21.47
2018-06-27T19:08:24.670Z,21.32
2018-06-27T19:10:53.740Z,21.27
2018-06-27T19:13:22.822Z,21.04
2018-06-27T19:15:51.799Z,21.04
2018-06-27T19:18:21.340Z,20.87
2018-06-27T19:20:50.364Z,20.88
2018-06-27T19:23:19.461Z,20.80
2018-06-27T19:25:48.549Z,20.81
2018-06-27T19:28:17.733Z,20.75
2018-06-27T19:30:46.708Z,20.64
2018-06-27T19:33:15.482Z,20.57
2018-06-27T19:35:44.278Z,20.44
2018-06-27T19:38:13.453Z,20.45
2018-06-27T19:40:42.575Z,20.41
2018-06-27T19:43:11.720Z,20.36
2018-06-27T19:45:40.528Z,20.26
2018-06-27T19:48:09.657Z,20.28
2018-06-27T19:50:38.529Z,20.26
2018-06-27T19:53:07.650Z,20.23
2018-06-27T19:55:36.642Z,20.16
2018-06-27T19:58:05.428Z,20.14
2018-06-27T20:00:34.227Z,20.08
2018-06-27T20:03:03.339Z,20.02
2018-06-27T20:05:32.197Z,19.94
2018-06-27T20:08:01.540Z,19.88
2018-06-27T20:10:30.391Z,19.80
2018-06-27T20:12:59.324Z,19.74
2018-06-27T20:15:29.077Z,19.64
2018-06-27T20:17:57.920Z,19.58
2018-06-27T20:20:26.967Z,19.46
2018-06-27T20:22:55.982Z,19.34
2018-06-27T20:25:25.259Z,19.34
2018-06-27T20:27:54.166Z,19.30
2018-06-27T20:30:23.182Z,19.32
2018-06-27T20:32:52.057Z,19.29
2018-06-27T20:35:20.867Z,19.25
2018-06-27T20:37:49.957Z,19.25
2018-06-27T20:40:18.900Z,19.20
2018-06-27T20:42:48.114Z,19.19
2018-06-27T20:45:17.022Z,19.17
2018-06-27T20:47:45.835Z,19.13
2018-06-27T20:50:15.131Z,19.06
2018-06-27T20:52:44.036Z,18.95
2018-06-27T20:55:12.943Z,18.93
2018-06-27T20:57:41.802Z,18.84
2018-06-27T21:00:10.676Z,18.81
2018-06-27T21:02:39.615Z,18.77
2018-06-27T21:05:08.589Z,18.75
2018-06-27T21:07:37.645Z,18.73
2018-06-27T21:10:06.654Z,18.61
2018-06-27T21:12:35.461Z,18.62
2018-06-27T21:15:04.457Z,18.58
2018-06-27T21:17:33.412Z,18.54
2018-06-27T21:20:02.374Z,18.51
2018-06-27T21:22:31.237Z,18.47
2018-06-27T21:25:00.336Z,18.49
2018-06-27T21:27:29.813Z,18.52
2018-06-27T21:29:58.505Z,18.46
2018-06-27T21:32:27.168Z,18.40
2018-06-27T21:34:56.113Z,18.33
2018-06-27T21:37:25.118Z,18.27
2018-06-27T21:39:53.971Z,18.22
2018-06-27T21:42:23.070Z,18.18
2018-06-27T21:44:52.087Z,18.15
2018-06-27T21:47:21.900Z,18.11
2018-06-27T21:49:50.738Z,18.08
2018-06-27T21:52:19.782Z,18.00
2018-06-27T21:54:48.615Z,18.01
2018-06-27T21:57:17.468Z,17.96
2018-06-27T21:59:46.449Z,17.90
2018-06-27T22:02:15.486Z,17.88
2018-06-27T22:04:44.236Z,17.77
2018-06-27T22:07:13.888Z,17.75
2018-06-27T22:09:43.069Z,17.68
2018-06-27T22:12:12.381Z,17.70
2018-06-27T22:14:41.325Z,17.68
2018-06-27T22:17:10.309Z,17.65
2018-06-27T22:19:39.204Z,17.63
2018-06-27T22:22:07.996Z,17.62
2018-06-27T22:24:36.835Z,17.53
2018-06-27T22:27:05.878Z,17.57
2018-06-27T22:29:34.625Z,17.53
2018-06-27T22:32:03.523Z,17.47
2018-06-27T22:34:32.441Z,17.46
2018-06-27T22:37:01.571Z,17.36
2018-06-27T22:39:30.400Z,17.34
2018-06-27T22:41:59.250Z,17.31
2018-06-27T22:44:28.175Z,17.24
2018-06-27T22:46:57.148Z,17.22
2018-06-27T22:49:25.954Z,17.13
2018-06-27T22:51:54.968Z,17.17
2018-06-27T22:54:24.226Z,17.17
2018-06-27T22:56:53.289Z,17.19
2018-06-27T22:59:22.414Z,17.13
2018-06-27T23:01:51.314Z,17.05
2018-06-27T23:04:20.050Z,17.03
2018-06-27T23:06:48.956Z,16.99
2018-06-27T23:09:17.942Z,17.02
2018-06-27T23:11:46.816Z,16.96
2018-06-27T23:14:16.975Z,16.89
2018-06-27T23:16:45.884Z,16.86
2018-06-27T23:19:15.002Z,16.82
2018-06-27T23:21:43.761Z,16.78
2018-06-27T23:24:12.486Z,16.67
2018-06-27T23:26:41.414Z,16.68
2018-06-27T23:29:10.166Z,16.68
2018-06-27T23:31:38.985Z,16.62
2018-06-27T23:34:07.959Z,16.60
2018-06-27T23:36:37.005Z,16.56
2018-06-27T23:39:09.451Z,16.56
2018-06-27T23:41:38.263Z,16.56
2018-06-27T23:44:07.088Z,16.50
2018-06-27T23:46:35.828Z,16.43
2018-06-27T23:49:04.827Z,16.46
2018-06-27T23:51:33.649Z,16.40
2018-06-27T23:54:02.579Z,16.33
2018-06-27T23:56:31.369Z,16.32
2018-06-27T23:59:00.259Z,16.27
